Time;durP1;ratioP1;P1;durP2;ratioP2;P2;SDS_P1;SDS_P2;PMS_P1;PMS_P2;Temp;Humidity;BMP_temperature;BMP_pressure;BME280_temperature;BME280_humidity;BME280_pressure;Samples;Min_cycle;Max_cycle;Signal;HPM_P1;HPM_P2
2022/01/12 00:01:14;;;;;;;60.05;25.17;;;;;;;;;;4991595;28;20050;-78
2022/01/12 00:03:41;;;;;;;61.67;24.85;;;;;;;;;;4994993;28;20056;-78
2022/01/12 00:06:07;;;;;;;67.60;26.20;;;;;;;;;;4987875;28;20117;-78
2022/01/12 00:08:33;;;;;;;66.25;23.73;;;;;;;;;;5006776;28;20124;-77
2022/01/12 00:11:00;;;;;;;66.90;24.70;;;;;;;;;;4987686;28;20041;-78
2022/01/12 00:13:26;;;;;;;60.97;23.98;;;;;;;;;;4985277;28;20123;-78
2022/01/12 00:15:52;;;;;;;56.45;21.17;;;;;;;;;;4981128;28;20482;-78
2022/01/12 00:18:19;;;;;;;51.80;21.35;;;;;;;;;;4985467;28;20059;-78
2022/01/12 00:20:44;;;;;;;55.00;20.65;;;;;;;;;;4986427;28;20046;-78
2022/01/12 00:23:11;;;;;;;46.22;18.48;;;;;;;;;;4985185;28;20100;-78
2022/01/12 00:33:52;;;;;;;44.50;18.83;;;;;;;;;;4984362;28;20655;-77
2022/01/12 00:36:19;;;;;;;49.90;17.88;;;;;;;;;;4984467;28;20053;-77
2022/01/12 00:38:45;;;;;;;38.75;16.25;;;;;;;;;;4982431;28;20069;-77
2022/01/12 00:41:11;;;;;;;30.92;13.60;;;;;;;;;;4982944;28;20050;-78
2022/01/12 00:43:42;;;;;;;30.30;11.48;;;;;;;;;;4984999;28;20932;-77
2022/01/12 00:46:08;;;;;;;20.88;7.70;;;;;;;;;;4989031;28;20091;-77
2022/01/12 00:48:37;;;;;;;16.27;5.88;;;;;;;;;;4985144;28;20513;-77
2022/01/12 00:51:04;;;;;;;17.77;6.40;;;;;;;;;;4985208;28;20069;-78
2022/01/12 00:53:30;;;;;;;13.60;4.95;;;;;;;;;;4983848;28;20054;-77
2022/01/12 00:55:56;;;;;;;15.63;5.63;;;;;;;;;;5002713;28;20045;-77
2022/01/12 00:58:25;;;;;;;16.70;4.88;;;;;;;;;;4984956;28;20505;-78
2022/01/12 01:00:51;;;;;;;21.38;6.43;;;;;;;;;;4984332;28;20099;-78
2022/01/12 01:03:17;;;;;;;19.40;5.55;;;;;;;;;;4984361;28;20046;-77
2022/01/12 01:05:43;;;;;;;18.02;5.60;;;;;;;;;;4984392;28;20642;-77
2022/01/12 01:08:10;;;;;;;13.75;4.60;;;;;;;;;;4984841;28;20043;-77
2022/01/12 01:10:51;;;;;;;10.73;2.97;;;;;;;;;;4983679;28;20140;-78
2022/01/12 01:13:20;;;;;;;8.55;2.40;;;;;;;;;;5002775;28;20057;-77
2022/01/12 01:26:32;;;;;;;11.80;2.88;;;;;;;;;;4981680;28;20057;-77
2022/01/12 01:28:58;;;;;;;10.32;2.65;;;;;;;;;;4984313;28;20054;-78
2022/01/12 01:31:30;;;;;;;7.55;2.60;;;;;;;;;;4983118;28;20367;-78
2022/01/12 01:33:57;;;;;;;9.25;2.92;;;;;;;;;;4983287;28;20065;-78
2022/01/12 01:36:27;;;;;;;8.35;2.72;;;;;;;;;;4983413;28;20034;-78
2022/01/12 01:38:53;;;;;;;6.38;2.40;;;;;;;;;;4983808;28;20049;-77
2022/01/12 01:41:21;;;;;;;12.00;3.70;;;;;;;;;;4981401;28;20050;-78
2022/01/12 01:44:20;;;;;;;10.48;3.20;;;;;;;;;;4982501;28;20053;-77
2022/01/12 01:54:57;;;;;;;10.73;4.10;;;;;;;;;;5000626;28;20041;-77
2022/01/12 01:57:24;;;;;;;10.00;3.20;;;;;;;;;;4984168;28;20050;-77
2022/01/12 01:59:50;;;;;;;11.00;3.60;;;;;;;;;;4981726;28;20057;-78
2022/01/12 02:02:16;;;;;;;8.50;3.40;;;;;;;;;;4983776;28;20046;-77
2022/01/12 02:04:42;;;;;;;9.23;3.75;;;;;;;;;;4982521;28;20058;-77
2022/01/12 02:07:08;;;;;;;8.70;3.35;;;;;;;;;;4982249;28;20042;-77
2022/01/12 02:09:37;;;;;;;12.82;3.50;;;;;;;;;;4982506;28;20050;-77
2022/01/12 02:12:03;;;;;;;8.18;3.22;;;;;;;;;;4985696;28;20065;-77
2022/01/12 02:14:29;;;;;;;8.38;3.88;;;;;;;;;;4978884;28;20050;-77
2022/01/12 02:17:11;;;;;;;13.05;3.63;;;;;;;;;;5000632;28;20046;-77
2022/01/12 02:36:44;;;;;;;8.20;2.95;;;;;;;;;;4963010;28;20146;-77
2022/01/12 02:41:45;;;;;;;11.73;3.35;;;;;;;;;;4985004;28;20123;-77
2022/01/12 02:54:44;;;;;;;10.77;3.97;;;;;;;;;;4977016;28;20132;-77
2022/01/12 02:57:10;;;;;;;8.18;3.55;;;;;;;;;;4979443;28;20038;-77
2022/01/12 02:59:36;;;;;;;7.07;4.10;;;;;;;;;;4981009;28;20054;-77
2022/01/12 03:05:16;;;;;;;9.73;3.90;;;;;;;;;;4978586;28;20057;-77
2022/01/12 03:07:40;;;;;;;9.98;3.60;;;;;;;;;;4981008;28;20050;-77
2022/01/12 03:10:07;;;;;;;9.55;3.63;;;;;;;;;;4978715;28;20162;-77
2022/01/12 03:12:36;;;;;;;12.60;3.75;;;;;;;;;;4977748;28;20081;-77
2022/01/12 03:15:02;;;;;;;9.05;3.28;;;;;;;;;;4980552;28;20101;-77
2022/01/12 03:17:37;;;;;;;11.82;4.00;;;;;;;;;;4981935;28;20837;-77
2022/01/12 03:20:05;;;;;;;8.95;3.40;;;;;;;;;;4981669;28;20577;-78
2022/01/12 03:22:31;;;;;;;11.07;3.95;;;;;;;;;;4976543;28;20058;-77
2022/01/12 03:24:57;;;;;;;6.35;3.22;;;;;;;;;;4978745;28;20046;-77
2022/01/12 03:27:25;;;;;;;8.23;3.00;;;;;;;;;;4978441;28;20052;-77
2022/01/12 03:29:55;;;;;;;9.40;3.38;;;;;;;;;;4980258;28;21967;-77
2022/01/12 03:32:29;;;;;;;12.90;3.40;;;;;;;;;;4978298;28;20479;-77
2022/01/12 03:35:06;;;;;;;;;;;;;;;;;;4977957;28;20050;-77
2022/01/12 03:38:19;;;;;;;9.32;3.53;;;;;;;;;;4979141;28;20325;-78
2022/01/12 03:40:27;;;;;;;9.80;4.15;;;;;;;;;;4975916;28;20054;-77
2022/01/12 03:42:53;;;;;;;13.73;4.22;;;;;;;;;;4977569;28;20722;-77
2022/01/12 03:45:19;;;;;;;13.32;3.60;;;;;;;;;;4978526;28;20169;-77
2022/01/12 03:47:45;;;;;;;8.60;3.33;;;;;;;;;;4976349;28;20043;-77
2022/01/12 03:50:11;;;;;;;11.57;3.33;;;;;;;;;;4978038;28;20042;-77
2022/01/12 03:52:37;;;;;;;12.98;3.38;;;;;;;;;;4976628;28;20133;-77
2022/01/12 03:55:03;;;;;;;10.82;3.45;;;;;;;;;;4978236;28;20471;-77
2022/01/12 03:57:29;;;;;;;11.30;3.10;;;;;;;;;;4982398;28;20141;-77
2022/01/12 03:59:55;;;;;;;8.50;2.70;;;;;;;;;;4977472;28;20133;-78
2022/01/12 04:02:22;;;;;;;9.70;3.35;;;;;;;;;;4980645;28;20180;-77
2022/01/12 04:05:24;;;;;;;11.50;3.08;;;;;;;;;;4978226;28;20474;-77
2022/01/12 04:10:24;;;;;;;7.60;2.60;;;;;;;;;;4977887;28;20739;-77
2022/01/12 04:12:50;;;;;;;12.38;3.38;;;;;;;;;;4980257;28;20101;-77
2022/01/12 04:15:16;;;;;;;10.63;3.58;;;;;;;;;;4980938;28;20046;-77
2022/01/12 04:17:42;;;;;;;8.80;2.72;;;;;;;;;;4979553;28;20057;-77
2022/01/12 04:20:08;;;;;;;11.32;3.17;;;;;;;;;;4981838;28;20047;-77
2022/01/12 04:25:24;;;;;;;15.30;3.40;;;;;;;;;;4981606;28;20132;-77
2022/01/12 04:27:50;;;;;;;14.20;3.15;;;;;;;;;;4980265;28;20145;-77
2022/01/12 04:30:16;;;;;;;10.80;3.08;;;;;;;;;;4980734;28;20141;-77
2022/01/12 04:32:43;;;;;;;12.52;3.10;;;;;;;;;;4982816;28;20061;-77
2022/01/12 04:35:14;;;;;;;9.63;3.30;;;;;;;;;;4982178;28;20046;-77
2022/01/12 04:37:40;;;;;;;11.55;2.92;;;;;;;;;;4980793;28;20065;-77
2022/01/12 04:40:07;;;;;;;9.45;3.10;;;;;;;;;;4980166;28;20046;-77
2022/01/12 04:42:34;;;;;;;11.02;3.33;;;;;;;;;;4978425;28;20057;-77
2022/01/12 04:45:14;;;;;;;7.80;2.70;;;;;;;;;;4982681;28;20031;-77
2022/01/12 04:50:19;;;;;;;14.57;3.38;;;;;;;;;;4980026;28;20050;-77
2022/01/12 04:52:45;;;;;;;10.98;2.97;;;;;;;;;;4980756;28;20085;-77
2022/01/12 04:55:11;;;;;;;16.27;3.63;;;;;;;;;;4980267;28;20046;-77
2022/01/12 04:57:37;;;;;;;11.32;3.33;;;;;;;;;;4981113;28;20145;-77
2022/01/12 05:00:13;;;;;;;7.95;3.13;;;;;;;;;;4982083;28;20134;-77
2022/01/12 05:08:38;;;;;;;9.40;3.05;;;;;;;;;;4980461;28;20565;-77
2022/01/12 05:13:50;;;;;;;15.73;3.30;;;;;;;;;;4979851;28;20070;-77
2022/01/12 05:16:17;;;;;;;9.38;2.80;;;;;;;;;;4979817;28;20058;-77
2022/01/12 05:18:44;;;;;;;14.98;3.53;;;;;;;;;;4979251;28;20046;-77
2022/01/12 05:21:10;;;;;;;14.07;3.88;;;;;;;;;;4980683;28;20133;-77
2022/01/12 05:23:36;;;;;;;17.67;3.80;;;;;;;;;;4982279;28;20093;-77
2022/01/12 05:26:03;;;;;;;12.73;3.65;;;;;;;;;;4983313;28;20053;-77
2022/01/12 05:28:30;;;;;;;18.45;3.83;;;;;;;;;;4982930;28;20046;-77
2022/01/12 05:30:57;;;;;;;17.40;3.80;;;;;;;;;;4982793;28;20409;-77
2022/01/12 05:33:24;;;;;;;18.45;4.32;;;;;;;;;;4980830;28;20399;-77
2022/01/12 05:35:55;;;;;;;20.70;4.70;;;;;;;;;;4984299;28;20049;-77
2022/01/12 05:38:21;;;;;;;19.90;4.57;;;;;;;;;;4981636;28;20049;-77
2022/01/12 05:40:49;;;;;;;20.30;4.10;;;;;;;;;;4982924;28;20052;-77
2022/01/12 05:43:20;;;;;;;26.05;4.35;;;;;;;;;;5001716;28;20033;-77
2022/01/12 05:45:46;;;;;;;18.02;4.65;;;;;;;;;;4999245;28;20107;-78
2022/01/12 05:50:39;;;;;;;19.60;4.75;;;;;;;;;;4984009;28;20152;-77
2022/01/12 05:53:05;;;;;;;14.15;4.28;;;;;;;;;;4981525;28;20553;-77
2022/01/12 05:55:31;;;;;;;17.27;4.78;;;;;;;;;;4983423;28;20145;-77
2022/01/12 05:57:57;;;;;;;16.55;3.55;;;;;;;;;;4984061;28;20132;-77
2022/01/12 06:00:24;;;;;;;17.05;3.70;;;;;;;;;;4998657;28;20108;-77
2022/01/12 06:02:50;;;;;;;13.20;3.55;;;;;;;;;;4982619;28;20136;-77
2022/01/12 06:05:18;;;;;;;17.92;4.22;;;;;;;;;;4983261;28;20149;-77
2022/01/12 06:07:45;;;;;;;17.45;4.40;;;;;;;;;;4981225;28;20083;-77
2022/01/12 06:10:11;;;;;;;20.15;4.18;;;;;;;;;;4982279;28;20038;-78
2022/01/12 06:12:38;;;;;;;13.23;3.88;;;;;;;;;;4981595;28;20505;-77
2022/01/12 06:15:04;;;;;;;16.15;4.10;;;;;;;;;;4981749;28;20054;-77
2022/01/12 06:17:30;;;;;;;18.92;3.65;;;;;;;;;;4981491;28;20120;-78
2022/01/12 06:19:56;;;;;;;31.40;12.55;;;;;;;;;;4980403;28;20133;-77
2022/01/12 06:22:24;;;;;;;18.35;4.60;;;;;;;;;;4983780;28;20062;-77
2022/01/12 06:24:54;;;;;;;12.77;3.95;;;;;;;;;;4979968;28;20057;-77
2022/01/12 06:27:23;;;;;;;22.88;4.22;;;;;;;;;;4980258;28;20058;-77
2022/01/12 06:30:02;;;;;;;27.20;4.72;;;;;;;;;;4998790;28;20149;-77
2022/01/12 06:32:29;;;;;;;17.65;3.78;;;;;;;;;;4999573;28;20129;-77
2022/01/12 06:34:55;;;;;;;17.33;4.13;;;;;;;;;;4982715;28;20086;-77
2022/01/12 06:37:21;;;;;;;21.33;4.63;;;;;;;;;;5007011;28;20050;-77
2022/01/12 06:39:47;;;;;;;17.00;4.68;;;;;;;;;;4998444;28;20053;-77
2022/01/12 06:42:13;;;;;;;20.10;4.78;;;;;;;;;;4981556;28;20143;-77
2022/01/12 06:44:39;;;;;;;18.42;4.28;;;;;;;;;;4980361;28;20073;-76
2022/01/12 06:47:05;;;;;;;14.15;4.10;;;;;;;;;;4985325;28;20053;-77
2022/01/12 06:49:35;;;;;;;17.05;3.95;;;;;;;;;;4983700;28;20050;-75
2022/01/12 06:52:01;;;;;;;15.27;3.53;;;;;;;;;;5000271;28;20490;-77
2022/01/12 06:54:27;;;;;;;20.90;3.97;;;;;;;;;;4982390;28;20382;-76
2022/01/12 06:56:56;;;;;;;16.83;4.13;;;;;;;;;;4997026;28;20048;-76
2022/01/12 06:59:25;;;;;;;16.92;4.28;;;;;;;;;;4982727;28;20110;-77
2022/01/12 07:01:51;;;;;;;17.60;3.97;;;;;;;;;;4981896;28;20077;-77
2022/01/12 07:04:17;;;;;;;21.23;4.20;;;;;;;;;;4982791;28;20038;-77
2022/01/12 07:06:43;;;;;;;15.55;3.50;;;;;;;;;;5001080;28;20057;-77
2022/01/12 07:09:09;;;;;;;19.63;3.90;;;;;;;;;;4999690;28;20046;-76
2022/01/12 07:11:35;;;;;;;14.48;3.67;;;;;;;;;;4979068;28;20077;-76
2022/01/12 07:14:01;;;;;;;14.70;4.10;;;;;;;;;;4998049;28;20048;-77
2022/01/12 07:16:27;;;;;;;14.90;3.85;;;;;;;;;;4980436;28;20088;-77
2022/01/12 07:18:58;;;;;;;12.18;3.30;;;;;;;;;;4979977;28;20137;-77
2022/01/12 07:21:24;;;;;;;18.80;4.25;;;;;;;;;;4999245;28;20064;-76
2022/01/12 07:23:54;;;;;;;14.18;3.55;;;;;;;;;;4994999;28;20053;-77
2022/01/12 07:26:20;;;;;;;16.15;3.17;;;;;;;;;;4980416;28;20065;-77
2022/01/12 07:28:46;;;;;;;18.33;3.92;;;;;;;;;;4980690;28;20136;-76
2022/01/12 07:31:12;;;;;;;17.50;3.90;;;;;;;;;;4979495;28;20050;-77
2022/01/12 07:33:38;;;;;;;20.50;3.95;;;;;;;;;;4984052;28;20041;-76
2022/01/12 07:36:04;;;;;;;18.48;4.38;;;;;;;;;;4982313;28;20049;-77
2022/01/12 07:38:33;;;;;;;11.23;4.05;;;;;;;;;;4981974;28;20045;-75
2022/01/12 07:41:00;;;;;;;11.50;3.95;;;;;;;;;;4988431;28;20096;-77
2022/01/12 07:43:26;;;;;;;15.10;4.30;;;;;;;;;;5005930;28;20046;-77
2022/01/12 07:45:52;;;;;;;14.27;4.00;;;;;;;;;;4988470;28;20070;-77
2022/01/12 07:48:24;;;;;;;23.02;4.30;;;;;;;;;;4990709;28;20108;-78
2022/01/12 07:50:50;;;;;;;16.55;3.90;;;;;;;;;;5008053;28;20065;-77
2022/01/12 07:53:16;;;;;;;16.67;3.97;;;;;;;;;;5011200;28;20041;-77
2022/01/12 07:55:42;;;;;;;14.65;4.28;;;;;;;;;;4984506;28;20070;-77
2022/01/12 07:58:08;;;;;;;15.45;3.70;;;;;;;;;;4988098;28;20054;-77
2022/01/12 08:00:35;;;;;;;15.85;3.88;;;;;;;;;;4988725;28;20201;-77
2022/01/12 08:03:01;;;;;;;19.80;3.75;;;;;;;;;;4986159;28;20147;-77
2022/01/12 08:05:27;;;;;;;15.35;4.07;;;;;;;;;;4996528;28;20060;-77
2022/01/12 08:07:55;;;;;;;21.40;4.00;;;;;;;;;;4986588;28;20057;-77
2022/01/12 08:10:21;;;;;;;16.58;3.30;;;;;;;;;;4993914;28;20061;-76
2022/01/12 08:12:48;;;;;;;15.73;3.70;;;;;;;;;;4993457;28;20046;-77
2022/01/12 08:15:14;;;;;;;15.25;3.67;;;;;;;;;;4989376;28;20045;-76
2022/01/12 08:17:40;;;;;;;17.23;4.15;;;;;;;;;;4993471;28;20121;-76
2022/01/12 08:20:11;;;;;;;15.48;3.92;;;;;;;;;;5003226;28;20053;-78
2022/01/12 08:22:38;;;;;;;18.25;4.18;;;;;;;;;;4990698;28;20486;-78
2022/01/12 08:25:04;;;;;;;16.77;4.13;;;;;;;;;;4988647;28;20185;-78
2022/01/12 08:27:31;;;;;;;19.35;4.60;;;;;;;;;;4991870;28;20041;-78
2022/01/12 08:30:01;;;;;;;15.13;3.45;;;;;;;;;;5007929;28;20516;-78
2022/01/12 08:32:31;;;;;;;15.70;3.40;;;;;;;;;;4990927;28;20128;-78
2022/01/12 08:34:57;;;;;;;17.15;4.00;;;;;;;;;;4989095;28;20528;-78
2022/01/12 08:37:23;;;;;;;18.38;3.45;;;;;;;;;;4986645;28;20042;-78
2022/01/12 08:39:51;;;;;;;14.25;4.05;;;;;;;;;;5005836;28;20057;-77
2022/01/12 08:42:17;;;;;;;17.95;4.35;;;;;;;;;;4987294;28;20397;-77
2022/01/12 08:44:43;;;;;;;15.73;3.45;;;;;;;;;;4986025;28;20121;-78
2022/01/12 08:47:09;;;;;;;21.83;3.85;;;;;;;;;;4991273;28;20038;-76
2022/01/12 08:49:35;;;;;;;18.55;3.50;;;;;;;;;;4985976;28;20051;-77
2022/01/12 08:52:01;;;;;;;18.20;3.80;;;;;;;;;;4989329;28;20038;-76
2022/01/12 08:54:27;;;;;;;15.70;4.10;;;;;;;;;;4991636;28;20129;-76
2022/01/12 08:56:53;;;;;;;17.38;3.40;;;;;;;;;;4986050;28;20137;-77
2022/01/12 08:59:19;;;;;;;18.73;4.28;;;;;;;;;;4988158;28;20042;-77
2022/01/12 09:01:45;;;;;;;13.68;3.80;;;;;;;;;;4988439;28;20467;-77
2022/01/12 09:04:11;;;;;;;20.85;4.15;;;;;;;;;;4991846;28;20048;-76
2022/01/12 09:06:38;;;;;;;12.88;3.65;;;;;;;;;;4987781;28;20042;-77
2022/01/12 09:09:04;;;;;;;12.40;3.30;;;;;;;;;;4988324;28;20038;-77
2022/01/12 09:11:30;;;;;;;18.13;3.65;;;;;;;;;;4990883;28;20060;-77
2022/01/12 09:13:56;;;;;;;13.75;3.50;;;;;;;;;;4988293;28;20050;-77
2022/01/12 09:16:22;;;;;;;16.88;3.80;;;;;;;;;;4989287;28;20054;-77
2022/01/12 09:18:48;;;;;;;14.43;4.28;;;;;;;;;;4989397;28;20034;-77
2022/01/12 09:21:14;;;;;;;16.63;4.10;;;;;;;;;;4990291;28;20053;-77
2022/01/12 09:23:43;;;;;;;24.45;4.80;;;;;;;;;;4991226;28;20053;-77
2022/01/12 09:26:09;;;;;;;20.02;4.25;;;;;;;;;;4989451;28;20077;-77
2022/01/12 09:28:35;;;;;;;21.33;5.35;;;;;;;;;;4985709;28;20085;-77
2022/01/12 09:31:01;;;;;;;17.98;3.95;;;;;;;;;;4986290;28;20089;-77
2022/01/12 09:33:27;;;;;;;17.02;4.35;;;;;;;;;;5005643;28;20060;-77
2022/01/12 09:35:54;;;;;;;13.45;3.70;;;;;;;;;;4984611;28;20125;-76
2022/01/12 09:38:21;;;;;;;15.82;4.28;;;;;;;;;;4991771;28;20462;-77
2022/01/12 09:40:47;;;;;;;16.13;5.18;;;;;;;;;;4982947;28;20383;-77
2022/01/12 09:43:13;;;;;;;14.60;4.43;;;;;;;;;;4988638;28;20038;-76
2022/01/12 09:45:43;;;;;;;18.10;4.75;;;;;;;;;;4987489;28;20058;-76
2022/01/12 09:48:10;;;;;;;15.07;5.00;;;;;;;;;;4989797;28;20044;-76
2022/01/12 09:50:36;;;;;;;19.08;5.47;;;;;;;;;;4988518;28;20447;-76
2022/01/12 09:53:02;;;;;;;15.80;4.90;;;;;;;;;;4988467;28;20108;-76
2022/01/12 09:55:31;;;;;;;16.88;6.22;;;;;;;;;;4992314;28;20050;-77
2022/01/12 09:58:00;;;;;;;19.40;5.63;;;;;;;;;;4991412;28;20069;-77
2022/01/12 10:00:27;;;;;;;19.40;5.13;;;;;;;;;;4986999;28;20115;-77
2022/01/12 10:02:53;;;;;;;21.67;5.40;;;;;;;;;;4988094;28;20042;-77
2022/01/12 10:05:28;;;;;;;23.08;5.55;;;;;;;;;;4988858;28;20060;-76
2022/01/12 10:07:54;;;;;;;17.25;5.20;;;;;;;;;;4981935;28;20053;-76
2022/01/12 10:10:20;;;;;;;19.88;4.95;;;;;;;;;;5008824;28;20542;-76
2022/01/12 10:12:53;;;;;;;22.67;5.85;;;;;;;;;;4987836;28;20132;-77
2022/01/12 10:15:21;;;;;;;26.35;5.15;;;;;;;;;;4984828;28;20049;-76
2022/01/12 10:17:47;;;;;;;21.35;4.95;;;;;;;;;;4981873;28;20087;-77
2022/01/12 10:20:17;;;;;;;19.52;4.57;;;;;;;;;;4987087;28;20053;-77
2022/01/12 10:22:56;;;;;;;19.35;5.28;;;;;;;;;;5005955;28;20414;-76
2022/01/12 10:25:22;;;;;;;20.77;4.32;;;;;;;;;;5007217;28;20172;-77
2022/01/12 10:27:48;;;;;;;16.20;4.93;;;;;;;;;;4988109;28;20084;-76
2022/01/12 10:30:28;;;;;;;20.17;5.88;;;;;;;;;;4990684;28;20041;-76
2022/01/12 10:33:00;;;;;;;20.05;5.90;;;;;;;;;;4987080;28;20084;-76
2022/01/12 10:35:27;;;;;;;20.20;5.10;;;;;;;;;;4986849;28;20050;-76
2022/01/12 10:37:53;;;;;;;19.55;4.72;;;;;;;;;;4985734;28;20077;-77
2022/01/12 10:40:19;;;;;;;23.05;5.03;;;;;;;;;;4988042;28;20078;-77
2022/01/12 10:42:45;;;;;;;17.70;5.07;;;;;;;;;;4984570;28;20034;-77
2022/01/12 10:45:11;;;;;;;21.98;4.60;;;;;;;;;;4982605;28;20057;-77
2022/01/12 10:47:37;;;;;;;18.75;4.68;;;;;;;;;;5001196;28;20496;-77
2022/01/12 10:50:05;;;;;;;21.48;5.07;;;;;;;;;;4986580;28;20038;-77
2022/01/12 10:52:37;;;;;;;21.15;4.47;;;;;;;;;;4986914;28;20054;-77
2022/01/12 10:55:05;;;;;;;14.63;4.75;;;;;;;;;;5004238;28;20045;-77
2022/01/12 10:57:41;;;;;;;22.58;4.47;;;;;;;;;;5005779;28;20410;-77
2022/01/12 11:00:18;;;;;;;17.55;4.72;;;;;;;;;;5001165;28;20091;-77
2022/01/12 11:02:44;;;;;;;22.88;5.53;;;;;;;;;;4981911;28;20047;-77
2022/01/12 11:05:13;;;;;;;17.73;4.90;;;;;;;;;;4982256;28;20417;-77
2022/01/12 11:07:39;;;;;;;19.20;5.22;;;;;;;;;;4987324;28;20034;-77
2022/01/12 11:10:07;;;;;;;17.35;4.63;;;;;;;;;;4987128;28;20387;-77
2022/01/12 11:12:35;;;;;;;18.70;4.45;;;;;;;;;;4983670;28;20060;-77
2022/01/12 11:15:02;;;;;;;19.48;4.63;;;;;;;;;;4985027;28;20050;-77
2022/01/12 11:17:28;;;;;;;17.95;4.63;;;;;;;;;;5007338;28;20216;-77
2022/01/12 11:20:12;;;;;;;17.00;5.30;;;;;;;;;;4987662;28;20165;-77
2022/01/12 11:23:00;;;;;;;18.90;5.18;;;;;;;;;;4984577;28;20139;-77
2022/01/12 11:25:26;;;;;;;17.92;5.40;;;;;;;;;;4985908;28;20043;-78
2022/01/12 11:28:09;;;;;;;17.17;4.68;;;;;;;;;;5003246;28;20125;-77
2022/01/12 11:30:36;;;;;;;20.63;4.83;;;;;;;;;;5004564;28;20049;-77
2022/01/12 11:33:03;;;;;;;14.18;4.57;;;;;;;;;;4984203;28;20304;-78
2022/01/12 11:35:49;;;;;;;26.80;5.60;;;;;;;;;;4987818;28;20188;-77
2022/01/12 11:38:28;;;;;;;20.23;5.40;;;;;;;;;;4967669;28;20618;-77
2022/01/12 11:40:57;;;;;;;16.48;5.15;;;;;;;;;;5000448;28;20042;-77
2022/01/12 11:43:25;;;;;;;16.17;5.07;;;;;;;;;;4985030;28;20050;-78
2022/01/12 11:46:09;;;;;;;20.48;5.50;;;;;;;;;;4999108;28;20050;-78
2022/01/12 11:48:43;;;;;;;13.80;5.28;;;;;;;;;;5003028;28;20141;-77
2022/01/12 11:51:09;;;;;;;18.63;4.75;;;;;;;;;;5000693;28;20486;-78
2022/01/12 11:53:44;;;;;;;11.55;5.15;;;;;;;;;;5001937;28;20061;-77
2022/01/12 11:56:15;;;;;;;15.32;4.63;;;;;;;;;;4985404;28;20425;-77
2022/01/12 11:58:53;;;;;;;17.08;5.32;;;;;;;;;;4985272;28;20042;-77
2022/01/12 12:01:19;;;;;;;21.38;5.72;;;;;;;;;;4988457;28;20125;-78
2022/01/12 12:03:58;;;;;;;16.75;5.82;;;;;;;;;;4983835;28;20648;-78
2022/01/12 12:06:25;;;;;;;16.17;6.05;;;;;;;;;;5004151;28;20397;-78
2022/01/12 12:09:01;;;;;;;19.98;5.70;;;;;;;;;;5001750;28;20077;-78
2022/01/12 12:11:28;;;;;;;19.17;6.03;;;;;;;;;;4983772;28;20393;-78
2022/01/12 12:13:59;;;;;;;21.00;6.28;;;;;;;;;;4974034;28;20084;-76
2022/01/12 12:16:25;;;;;;;17.10;6.72;;;;;;;;;;4996777;28;20048;-77
2022/01/12 12:18:53;;;;;;;21.60;6.30;;;;;;;;;;5001021;28;20034;-77
2022/01/12 12:21:19;;;;;;;17.48;6.25;;;;;;;;;;4984557;28;20073;-77
2022/01/12 12:23:46;;;;;;;15.32;6.18;;;;;;;;;;4985203;28;20038;-77
2022/01/12 12:26:13;;;;;;;17.20;7.13;;;;;;;;;;4985327;28;20046;-77
2022/01/12 12:28:39;;;;;;;20.67;6.47;;;;;;;;;;4988592;28;20054;-77
2022/01/12 12:31:06;;;;;;;14.63;6.05;;;;;;;;;;4985648;28;20050;-77
2022/01/12 12:33:34;;;;;;;14.25;6.93;;;;;;;;;;4986940;28;20046;-77
2022/01/12 12:36:00;;;;;;;16.88;6.25;;;;;;;;;;4993500;28;20474;-77
2022/01/12 12:38:26;;;;;;;16.65;6.18;;;;;;;;;;4991067;28;20057;-77
2022/01/12 12:40:57;;;;;;;16.90;6.18;;;;;;;;;;4998532;28;20155;-77
2022/01/12 12:43:25;;;;;;;15.38;6.10;;;;;;;;;;4989824;28;20137;-77
2022/01/12 12:45:53;;;;;;;16.30;5.90;;;;;;;;;;4991457;28;20050;-77
2022/01/12 12:48:20;;;;;;;12.15;5.25;;;;;;;;;;5005320;28;20060;-77
2022/01/12 12:50:47;;;;;;;18.33;5.53;;;;;;;;;;4993140;28;20137;-77
2022/01/12 12:53:13;;;;;;;14.85;5.00;;;;;;;;;;4988283;28;20843;-77
2022/01/12 12:55:41;;;;;;;12.93;4.93;;;;;;;;;;4988827;28;20041;-77
2022/01/12 12:58:07;;;;;;;14.18;4.70;;;;;;;;;;4992616;28;20046;-77
2022/01/12 13:00:33;;;;;;;10.50;4.35;;;;;;;;;;5003858;28;20050;-77
2022/01/12 13:03:00;;;;;;;12.40;4.38;;;;;;;;;;5007455;28;20057;-78
2022/01/12 13:05:31;;;;;;;10.85;4.00;;;;;;;;;;4986977;28;20042;-78
2022/01/12 13:07:57;;;;;;;10.98;3.65;;;;;;;;;;4993461;28;20057;-77
2022/01/12 13:10:27;;;;;;;11.90;4.05;;;;;;;;;;4992458;28;20406;-77
2022/01/12 13:12:54;;;;;;;13.50;4.72;;;;;;;;;;4987381;28;20053;-78
2022/01/12 13:15:32;;;;;;;12.65;3.22;;;;;;;;;;4990579;28;20132;-77
2022/01/12 13:18:04;;;;;;;10.57;4.03;;;;;;;;;;4987080;28;20037;-78
2022/01/12 13:23:24;;;;;;;12.23;4.18;;;;;;;;;;5003431;28;20604;-77
2022/01/12 13:25:50;;;;;;;9.15;3.33;;;;;;;;;;4987730;28;20541;-77
2022/01/12 13:28:18;;;;;;;10.80;3.92;;;;;;;;;;4982581;28;20417;-78
2022/01/12 13:30:52;;;;;;;12.68;5.60;;;;;;;;;;4985989;28;20073;-78
2022/01/12 13:33:32;;;;;;;18.83;5.57;;;;;;;;;;4988914;28;20049;-78
2022/01/12 13:36:01;;;;;;;21.13;8.10;;;;;;;;;;4985274;28;20125;-78
2022/01/12 13:38:32;;;;;;;19.45;7.72;;;;;;;;;;5004969;28;20045;-78
2022/01/12 13:41:08;;;;;;;12.50;5.05;;;;;;;;;;5006894;28;20100;-78
2022/01/12 13:43:34;;;;;;;19.27;6.57;;;;;;;;;;4990397;28;20042;-78
2022/01/12 13:46:11;;;;;;;18.15;7.80;;;;;;;;;;4987652;28;20057;-77
2022/01/12 13:48:40;;;;;;;8.60;3.72;;;;;;;;;;4986701;28;20041;-77
2022/01/12 13:51:09;;;;;;;12.52;4.47;;;;;;;;;;5002008;28;20494;-77
2022/01/12 13:53:38;;;;;;;10.80;3.50;;;;;;;;;;4986773;28;20072;-77
2022/01/12 13:56:05;;;;;;;10.98;3.38;;;;;;;;;;5003575;28;20121;-77
2022/01/12 13:58:32;;;;;;;11.13;3.97;;;;;;;;;;5000432;28;20054;-78
2022/01/12 14:00:59;;;;;;;10.75;3.88;;;;;;;;;;4990199;28;20050;-77
2022/01/12 14:03:26;;;;;;;8.95;3.25;;;;;;;;;;4990744;28;20050;-78
2022/01/12 14:05:58;;;;;;;12.45;3.53;;;;;;;;;;5006191;28;20049;-77
2022/01/12 14:08:29;;;;;;;14.88;3.60;;;;;;;;;;5001173;28;20038;-78
2022/01/12 14:10:55;;;;;;;8.45;3.17;;;;;;;;;;4986723;28;20074;-77
2022/01/12 14:13:29;;;;;;;10.38;2.90;;;;;;;;;;5001409;28;20103;-78
2022/01/12 14:15:55;;;;;;;;;;;;;;;;;;4980994;28;20046;-77
2022/01/12 14:18:21;;;;;;;8.32;3.30;;;;;;;;;;4982812;28;19968;-77
2022/01/12 14:20:47;;;;;;;8.95;2.70;;;;;;;;;;4986792;28;20049;-77
2022/01/12 14:23:15;;;;;;;7.43;3.10;;;;;;;;;;4989161;28;20497;-77
2022/01/12 14:25:47;;;;;;;10.35;2.90;;;;;;;;;;5006047;28;20076;-77
2022/01/12 14:28:15;;;;;;;9.38;3.20;;;;;;;;;;4977617;28;20045;-78
2022/01/12 14:30:42;;;;;;;11.60;2.90;;;;;;;;;;4984273;28;20048;-77
2022/01/12 14:33:08;;;;;;;10.15;3.20;;;;;;;;;;5004236;28;20183;-77
2022/01/12 14:35:35;;;;;;;6.55;2.88;;;;;;;;;;5007777;28;20070;-77
2022/01/12 14:38:01;;;;;;;5.55;2.70;;;;;;;;;;4988971;28;20548;-78
2022/01/12 14:40:27;;;;;;;9.68;3.13;;;;;;;;;;4986536;28;20049;-78
2022/01/12 14:42:54;;;;;;;6.97;3.00;;;;;;;;;;4983906;28;20782;-77
2022/01/12 14:45:26;;;;;;;11.93;3.15;;;;;;;;;;4989527;28;20064;-77
2022/01/12 14:47:53;;;;;;;7.20;2.60;;;;;;;;;;4983897;28;20040;-78
2022/01/12 14:50:22;;;;;;;7.72;2.85;;;;;;;;;;4998478;28;20485;-77
2022/01/12 14:52:49;;;;;;;8.38;3.05;;;;;;;;;;4987756;28;20536;-77
2022/01/12 14:55:15;;;;;;;10.07;2.85;;;;;;;;;;4990659;28;20045;-77
2022/01/12 14:57:41;;;;;;;9.35;3.00;;;;;;;;;;5005812;28;20045;-77
2022/01/12 15:00:10;;;;;;;9.93;3.05;;;;;;;;;;5004534;28;20482;-77
2022/01/12 15:02:36;;;;;;;12.10;2.92;;;;;;;;;;4985085;28;20505;-77
2022/01/12 15:05:03;;;;;;;7.65;2.85;;;;;;;;;;4983925;28;20064;-78
2022/01/12 15:07:29;;;;;;;11.23;3.50;;;;;;;;;;4987057;28;20503;-77
2022/01/12 15:09:55;;;;;;;7.57;2.83;;;;;;;;;;5002296;28;20081;-78
2022/01/12 15:12:31;;;;;;;11.00;3.40;;;;;;;;;;4988217;28;20045;-77
2022/01/12 15:14:58;;;;;;;10.25;3.10;;;;;;;;;;4981940;28;20078;-77
2022/01/12 15:17:31;;;;;;;10.15;3.10;;;;;;;;;;4992575;28;20549;-78
2022/01/12 15:20:02;;;;;;;;;;;;;;;;;;5008490;28;20052;-77
2022/01/12 15:22:28;;;;;;;9.30;3.05;;;;;;;;;;5005076;28;19972;-77
2022/01/12 15:24:54;;;;;;;8.77;3.08;;;;;;;;;;4987486;28;20493;-77
2022/01/12 15:27:23;;;;;;;10.15;3.10;;;;;;;;;;4987735;28;20038;-77
2022/01/12 15:29:50;;;;;;;13.48;3.55;;;;;;;;;;4984924;28;21035;-77
2022/01/12 15:32:16;;;;;;;8.88;3.05;;;;;;;;;;4989431;28;20229;-77
2022/01/12 15:34:42;;;;;;;10.43;3.40;;;;;;;;;;5000956;28;20502;-77
2022/01/12 15:37:08;;;;;;;8.80;3.28;;;;;;;;;;5005133;28;20385;-77
2022/01/12 15:39:34;;;;;;;11.70;3.20;;;;;;;;;;4985737;28;20042;-77
2022/01/12 15:42:00;;;;;;;7.35;3.08;;;;;;;;;;4985355;28;20046;-77
2022/01/12 15:44:26;;;;;;;7.47;2.85;;;;;;;;;;4986824;28;20061;-77
2022/01/12 15:46:53;;;;;;;12.27;3.28;;;;;;;;;;5003462;28;20042;-78
2022/01/12 15:49:19;;;;;;;12.23;3.45;;;;;;;;;;4999356;28;20051;-77
2022/01/12 15:51:45;;;;;;;12.13;3.05;;;;;;;;;;4986150;28;20034;-78
2022/01/12 15:54:11;;;;;;;12.65;3.83;;;;;;;;;;4984857;28;20069;-78
2022/01/12 15:56:37;;;;;;;11.38;3.00;;;;;;;;;;4986774;28;20042;-77
2022/01/12 15:59:03;;;;;;;14.35;4.68;;;;;;;;;;4980011;28;20133;-77
2022/01/12 16:01:29;;;;;;;18.17;4.10;;;;;;;;;;5001885;28;20049;-78